Time;durP1;ratioP1;P1;durP2;ratioP2;P2;SDS_P1;SDS_P2;PMS_P1;PMS_P2;Temp;Humidity;BMP_temperature;BMP_pressure;BME280_temperature;BME280_humidity;BME280_pressure;Samples;Min_cycle;Max_cycle;Signal;HPM_P1;HPM_P2
2022/04/27 00:00:24;;;;;;;10.13;5.57;;;4.00;99.90;;;;;;4996428;28;20334;-76
2022/04/27 00:02:50;;;;;;;6.53;4.47;;;4.00;99.90;;;;;;5012895;28;20049;-77
2022/04/27 00:05:16;;;;;;;11.90;5.50;;;3.90;99.90;;;;;;5015258;28;20041;-76
2022/04/27 00:07:41;;;;;;;8.20;5.70;;;3.90;99.90;;;;;;5017205;28;20044;-77
2022/04/27 00:10:07;;;;;;;12.93;5.72;;;3.90;99.90;;;;;;5016543;28;20044;-77
2022/04/27 00:12:37;;;;;;;12.98;4.90;;;3.90;99.90;;;;;;5016919;28;20119;-77
2022/04/27 00:15:04;;;;;;;9.40;5.13;;;3.90;99.90;;;;;;5016940;28;20091;-77
2022/04/27 00:17:29;;;;;;;11.80;5.85;;;3.90;99.90;;;;;;5016964;28;20041;-77
2022/04/27 00:19:55;;;;;;;7.55;4.95;;;3.90;99.90;;;;;;5000150;28;20053;-77
2022/04/27 00:22:21;;;;;;;9.27;5.72;;;3.90;99.90;;;;;;5016863;28;20119;-78
2022/04/27 00:24:46;;;;;;;8.20;5.90;;;3.80;99.90;;;;;;5016947;28;20045;-77
2022/04/27 00:27:12;;;;;;;9.93;5.70;;;3.80;99.90;;;;;;5016702;28;20562;-77
2022/04/27 00:29:37;;;;;;;8.70;4.97;;;3.80;99.90;;;;;;5016226;28;20061;-77
2022/04/27 00:32:03;;;;;;;9.95;4.90;;;3.80;99.90;;;;;;5016623;28;20045;-77
2022/04/27 00:34:28;;;;;;;11.82;5.45;;;3.70;99.90;;;;;;5016500;28;20045;-77
2022/04/27 00:36:54;;;;;;;10.75;5.75;;;3.70;99.90;;;;;;5029514;28;20464;-76
2022/04/27 00:39:19;;;;;;;8.57;5.40;;;3.60;99.90;;;;;;5029611;28;20049;-77
2022/04/27 00:42:00;;;;;;;11.77;5.40;;;3.60;99.90;;;;;;5016041;28;20405;-77
2022/04/27 00:44:26;;;;;;;9.65;5.30;;;3.70;99.90;;;;;;5034223;28;20489;-76
2022/04/27 00:46:52;;;;;;;9.68;5.80;;;3.70;99.90;;;;;;5016365;28;20133;-77
2022/04/27 00:49:17;;;;;;;11.73;5.43;;;3.70;99.90;;;;;;5015793;28;20053;-77
2022/04/27 00:51:43;;;;;;;12.70;5.63;;;3.70;99.90;;;;;;5016274;28;20038;-77
2022/04/27 00:54:09;;;;;;;11.98;6.32;;;3.70;99.90;;;;;;5016202;28;20033;-77
2022/04/27 00:56:37;;;;;;;11.20;6.05;;;3.70;99.90;;;;;;5016536;28;20369;-77
2022/04/27 00:59:02;;;;;;;12.90;5.88;;;3.70;99.90;;;;;;5016367;28;20050;-77
2022/04/27 01:01:28;;;;;;;13.30;6.10;;;3.70;99.90;;;;;;5015816;28;20052;-78
2022/04/27 01:03:53;;;;;;;8.02;5.13;;;3.70;99.90;;;;;;4999643;28;20128;-77
2022/04/27 01:06:21;;;;;;;9.02;5.45;;;3.70;99.90;;;;;;5016023;28;20037;-77
2022/04/27 01:08:47;;;;;;;12.68;4.90;;;3.70;99.90;;;;;;4999616;28;20037;-77
2022/04/27 01:11:12;;;;;;;7.00;4.53;;;3.60;99.90;;;;;;5015437;28;20041;-76
2022/04/27 01:13:38;;;;;;;7.22;4.85;;;3.70;99.90;;;;;;5016243;28;20045;-78
2022/04/27 01:16:05;;;;;;;8.10;5.13;;;3.70;99.90;;;;;;5015217;28;20500;-77
2022/04/27 01:18:31;;;;;;;8.85;5.10;;;3.70;99.90;;;;;;5015376;28;20120;-77
2022/04/27 01:20:57;;;;;;;8.48;4.88;;;3.70;99.90;;;;;;5015631;28;20132;-77
2022/04/27 01:23:22;;;;;;;11.32;4.93;;;3.70;99.90;;;;;;5015455;28;20079;-77
2022/04/27 01:25:50;;;;;;;10.88;5.28;;;3.60;99.90;;;;;;5015735;28;20091;-77
2022/04/27 01:28:18;;;;;;;14.68;5.55;;;3.60;99.90;;;;;;5015650;28;20120;-76
2022/04/27 01:30:44;;;;;;;16.27;5.53;;;3.60;99.90;;;;;;5015180;28;20038;-77
2022/04/27 01:33:10;;;;;;;10.43;5.00;;;3.60;99.90;;;;;;5015379;28;20041;-77
2022/04/27 01:35:36;;;;;;;11.25;5.13;;;3.60;99.90;;;;;;4999082;28;20124;-76
2022/04/27 01:38:02;;;;;;;9.00;5.07;;;3.60;99.90;;;;;;4999123;28;20091;-77
2022/04/27 01:40:29;;;;;;;11.65;5.10;;;3.50;99.90;;;;;;5032832;28;20068;-76
2022/04/27 01:42:54;;;;;;;7.60;4.75;;;3.50;99.90;;;;;;5015258;28;20455;-76
2022/04/27 01:45:20;;;;;;;11.30;5.40;;;3.40;99.90;;;;;;5015221;28;20042;-77
2022/04/27 01:47:45;;;;;;;8.48;4.80;;;3.40;99.90;;;;;;5015490;28;20049;-78
2022/04/27 01:50:11;;;;;;;8.75;4.80;;;3.40;99.90;;;;;;5014380;28;20488;-76
2022/04/27 01:55:20;;;;;;;13.48;5.57;;;3.30;99.90;;;;;;5014909;28;20060;-77
2022/04/27 01:57:46;;;;;;;11.25;6.50;;;3.20;99.90;;;;;;5015285;28;20037;-77
2022/04/27 02:00:13;;;;;;;11.85;6.10;;;3.20;99.90;;;;;;5014688;28;20042;-77
2022/04/27 02:02:38;;;;;;;9.50;6.00;;;3.30;99.90;;;;;;5015176;28;20105;-78
2022/04/27 02:05:04;;;;;;;15.70;6.00;;;3.30;99.90;;;;;;5015144;28;20076;-77
2022/04/27 02:07:30;;;;;;;8.52;5.13;;;3.30;99.90;;;;;;4998617;28;20512;-78
2022/04/27 02:09:55;;;;;;;12.13;5.65;;;3.30;99.90;;;;;;5032202;28;20056;-77
2022/04/27 02:12:21;;;;;;;9.65;5.68;;;3.30;99.90;;;;;;5032554;28;20048;-77
2022/04/27 02:14:47;;;;;;;10.27;5.70;;;3.20;99.90;;;;;;5032448;28;20045;-77
2022/04/27 02:17:12;;;;;;;9.73;5.35;;;3.20;99.90;;;;;;5014706;28;20499;-77
2022/04/27 02:19:38;;;;;;;9.82;5.95;;;3.20;99.90;;;;;;5014144;28;20045;-78
2022/04/27 02:22:04;;;;;;;9.38;5.55;;;3.20;99.90;;;;;;5014581;28;20099;-76
2022/04/27 02:24:30;;;;;;;12.38;5.55;;;3.40;99.90;;;;;;5014713;28;20048;-76
2022/04/27 02:26:55;;;;;;;9.93;5.80;;;3.40;99.90;;;;;;5014734;28;20045;-76
2022/04/27 02:29:24;;;;;;;8.73;5.45;;;3.50;99.90;;;;;;5014113;28;20568;-77
2022/04/27 02:31:50;;;;;;;9.80;6.07;;;3.50;99.90;;;;;;5014191;28;20037;-77
2022/04/27 02:34:16;;;;;;;14.05;6.03;;;3.60;99.90;;;;;;5014452;28;20044;-77
2022/04/27 02:36:42;;;;;;;10.77;6.10;;;3.60;99.90;;;;;;5014541;28;20041;-76
2022/04/27 02:39:07;;;;;;;10.10;6.25;;;3.70;99.90;;;;;;5014355;28;20041;-77
2022/04/27 02:41:33;;;;;;;12.75;6.20;;;3.70;99.90;;;;;;5014149;28;20124;-77
2022/04/27 02:43:59;;;;;;;10.98;6.05;;;3.80;99.90;;;;;;5014063;28;20508;-78
2022/04/27 02:46:24;;;;;;;13.50;6.60;;;3.90;99.90;;;;;;4997699;28;20049;-77
2022/04/27 02:51:49;;;;;;;8.75;5.13;;;4.10;99.90;;;;;;5013790;28;20068;-76
2022/04/27 02:54:20;;;;;;;11.55;6.75;;;4.20;99.90;;;;;;5014191;28;20432;-78
2022/04/27 02:56:46;;;;;;;11.45;6.43;;;4.20;99.90;;;;;;5013848;28;20045;-77
2022/04/27 02:59:12;;;;;;;9.95;6.75;;;4.30;99.90;;;;;;4997448;28;20053;-77
2022/04/27 03:01:40;;;;;;;14.32;6.03;;;4.40;99.90;;;;;;5013547;28;20083;-77
2022/04/27 03:04:06;;;;;;;11.27;6.60;;;4.30;99.90;;;;;;5013868;28;20041;-77
2022/04/27 03:06:32;;;;;;;10.27;5.93;;;4.40;99.90;;;;;;5014060;28;20061;-77
2022/04/27 03:08:58;;;;;;;12.07;6.72;;;4.40;99.90;;;;;;5013780;28;20484;-78
2022/04/27 03:11:24;;;;;;;10.93;5.50;;;4.30;99.90;;;;;;5013316;28;20064;-77
2022/04/27 03:13:50;;;;;;;12.40;6.35;;;4.40;99.90;;;;;;5013685;28;20408;-78
2022/04/27 03:16:16;;;;;;;9.50;5.78;;;4.30;99.90;;;;;;5030679;28;20485;-76
2022/04/27 03:18:42;;;;;;;13.90;6.55;;;4.30;99.90;;;;;;5026602;28;20045;-77
2022/04/27 03:21:08;;;;;;;18.60;6.95;;;4.40;99.90;;;;;;5013503;28;20070;-78
2022/04/27 03:23:34;;;;;;;15.68;6.18;;;4.30;99.90;;;;;;4997018;28;20064;-78
2022/04/27 03:25:59;;;;;;;13.73;6.70;;;4.40;99.90;;;;;;5031188;28;20071;-77
2022/04/27 03:28:25;;;;;;;13.90;6.75;;;4.30;99.90;;;;;;5013482;28;20044;-76
2022/04/27 03:30:50;;;;;;;13.30;6.30;;;4.30;99.90;;;;;;5013075;28;20046;-77
2022/04/27 03:33:16;;;;;;;8.80;5.65;;;4.30;99.90;;;;;;5013305;28;20042;-77
2022/04/27 03:35:42;;;;;;;13.35;5.57;;;4.40;99.90;;;;;;5013382;28;20092;-78
2022/04/27 03:38:09;;;;;;;15.65;6.28;;;4.50;99.90;;;;;;5013094;28;20045;-77
2022/04/27 03:40:38;;;;;;;9.27;6.20;;;4.60;99.90;;;;;;5012573;28;20516;-79
2022/04/27 03:43:03;;;;;;;11.55;6.10;;;4.60;99.90;;;;;;5013499;28;20477;-77
2022/04/27 03:45:29;;;;;;;14.50;7.40;;;4.70;99.90;;;;;;5013123;28;20081;-77
2022/04/27 03:47:55;;;;;;;12.95;6.38;;;4.70;99.90;;;;;;5013161;28;20116;-77
2022/04/27 03:50:20;;;;;;;15.95;7.10;;;4.70;99.90;;;;;;5012680;28;20073;-78
2022/04/27 03:52:46;;;;;;;11.18;6.95;;;4.60;99.90;;;;;;5013280;28;20134;-77
2022/04/27 03:55:12;;;;;;;15.27;6.43;;;4.70;99.90;;;;;;5013144;28;20049;-77
2022/04/27 03:57:38;;;;;;;13.07;6.90;;;4.70;99.90;;;;;;5013224;28;20487;-77
2022/04/27 04:00:06;;;;;;;11.85;6.05;;;4.70;99.90;;;;;;5013139;28;20120;-77
2022/04/27 04:02:31;;;;;;;17.45;6.53;;;4.70;99.90;;;;;;5013023;28;20091;-78
2022/04/27 04:04:57;;;;;;;12.95;6.72;;;4.70;99.90;;;;;;5030633;28;20041;-76
2022/04/27 04:07:22;;;;;;;18.80;6.40;;;4.70;99.90;;;;;;5013004;28;20126;-77
2022/04/27 04:09:48;;;;;;;14.80;7.13;;;4.80;99.90;;;;;;5012644;28;20046;-77
2022/04/27 04:12:14;;;;;;;10.07;6.03;;;4.70;99.90;;;;;;5013213;28;20041;-77
2022/04/27 04:14:39;;;;;;;19.42;7.05;;;4.80;99.90;;;;;;5030524;28;20103;-77
2022/04/27 04:17:05;;;;;;;10.95;6.25;;;4.80;99.90;;;;;;5012891;28;20036;-77
2022/04/27 04:19:32;;;;;;;11.93;6.60;;;4.80;99.90;;;;;;5012016;28;20049;-79
2022/04/27 04:21:59;;;;;;;9.43;5.65;;;4.90;99.90;;;;;;5030065;28;20488;-78
2022/04/27 04:24:25;;;;;;;13.73;5.57;;;5.00;99.90;;;;;;5012852;28;20041;-77
2022/04/27 04:29:34;;;;;;;11.68;6.50;;;4.90;99.90;;;;;;5012688;28;20420;-77
2022/04/27 04:32:00;;;;;;;12.05;5.80;;;5.00;99.90;;;;;;5030424;28;20045;-78
2022/04/27 04:34:25;;;;;;;13.77;6.10;;;5.00;99.90;;;;;;5012808;28;20049;-77
2022/04/27 04:36:51;;;;;;;15.00;6.95;;;5.10;99.90;;;;;;5012532;28;20033;-77
2022/04/27 04:39:16;;;;;;;11.25;6.82;;;5.10;99.90;;;;;;5012593;28;20041;-78
2022/04/27 04:41:42;;;;;;;12.63;6.28;;;5.10;99.90;;;;;;5012239;28;20142;-77
2022/04/27 04:44:07;;;;;;;11.32;6.55;;;5.10;99.90;;;;;;5012525;28;20094;-77
2022/04/27 04:46:33;;;;;;;10.98;6.20;;;5.20;99.90;;;;;;5012581;28;20049;-77
2022/04/27 04:48:58;;;;;;;11.02;6.10;;;5.20;99.90;;;;;;5012347;28;20047;-77
2022/04/27 04:51:24;;;;;;;14.88;6.57;;;5.20;99.90;;;;;;5013286;28;20578;-77
2022/04/27 04:53:49;;;;;;;11.82;6.40;;;5.30;99.90;;;;;;5034055;28;20064;-76
2022/04/27 04:56:15;;;;;;;9.40;5.85;;;5.30;99.90;;;;;;5016152;28;20075;-77
2022/04/27 04:58:40;;;;;;;16.95;6.13;;;5.40;99.90;;;;;;5016241;28;20083;-78
2022/04/27 05:01:06;;;;;;;12.55;6.32;;;5.40;99.90;;;;;;5015984;28;20051;-78
2022/04/27 05:03:36;;;;;;;8.50;6.35;;;5.40;99.90;;;;;;5015717;28;20045;-77
2022/04/27 05:06:02;;;;;;;15.63;7.45;;;5.50;99.90;;;;;;5015937;28;20508;-77
2022/04/27 05:08:28;;;;;;;10.77;7.47;;;5.50;99.90;;;;;;5033577;28;20050;-77
2022/04/27 05:10:53;;;;;;;13.10;6.13;;;5.60;99.90;;;;;;5015532;28;20056;-77
2022/04/27 05:13:19;;;;;;;8.85;5.60;;;5.70;99.90;;;;;;5016085;28;20041;-78
2022/04/27 05:15:44;;;;;;;15.00;5.80;;;5.70;99.90;;;;;;5015897;28;20072;-77
2022/04/27 05:18:10;;;;;;;9.40;5.88;;;5.80;99.90;;;;;;5015651;28;20514;-78
2022/04/27 05:20:38;;;;;;;14.38;5.88;;;5.80;99.90;;;;;;5015398;28;20046;-77
2022/04/27 05:23:04;;;;;;;11.93;5.88;;;5.90;99.90;;;;;;5015725;28;20072;-77
2022/04/27 05:25:29;;;;;;;13.68;6.13;;;5.90;99.90;;;;;;5015644;28;20472;-77
2022/04/27 05:27:55;;;;;;;11.48;6.60;;;5.90;99.90;;;;;;5015780;28;20046;-77
2022/04/27 05:33:04;;;;;;;11.05;6.28;;;5.90;99.90;;;;;;5015671;28;20088;-77
2022/04/27 05:35:30;;;;;;;13.35;5.72;;;5.90;99.90;;;;;;5015561;28;20068;-77
2022/04/27 05:37:55;;;;;;;9.48;5.95;;;5.90;99.90;;;;;;5015645;28;20093;-77
2022/04/27 05:40:21;;;;;;;13.65;6.22;;;6.00;99.90;;;;;;5015392;28;20232;-77
2022/04/27 05:42:48;;;;;;;10.57;6.40;;;6.00;99.90;;;;;;5015406;28;20049;-77
2022/04/27 05:45:14;;;;;;;12.48;6.15;;;6.20;99.90;;;;;;5032992;28;20068;-77
2022/04/27 05:47:40;;;;;;;14.45;5.45;;;6.20;99.90;;;;;;5015351;28;20060;-77
2022/04/27 05:50:06;;;;;;;9.63;5.93;;;6.30;99.90;;;;;;5014902;28;20045;-77
2022/04/27 05:52:49;;;;;;;12.73;5.95;;;6.40;99.90;;;;;;5015303;28;20047;-77
2022/04/27 05:55:15;;;;;;;10.70;5.75;;;6.50;99.90;;;;;;5015066;28;20124;-78
2022/04/27 05:57:40;;;;;;;15.30;5.45;;;6.50;99.90;;;;;;5014944;28;20129;-78
2022/04/27 06:00:06;;;;;;;10.98;5.85;;;6.60;99.90;;;;;;5000809;28;20592;-77
2022/04/27 06:02:32;;;;;;;12.85;6.22;;;6.70;99.90;;;;;;5024384;28;20052;-77
2022/04/27 06:04:57;;;;;;;15.88;7.53;;;6.70;99.90;;;;;;5019220;28;20077;-77
2022/04/27 06:07:24;;;;;;;11.35;6.65;;;6.80;99.90;;;;;;5015064;28;20053;-77
2022/04/27 06:09:50;;;;;;;11.88;6.00;;;6.80;99.90;;;;;;5014478;28;20049;-78
2022/04/27 06:12:15;;;;;;;14.82;6.57;;;6.90;99.90;;;;;;5014801;28;20120;-77
2022/04/27 06:14:41;;;;;;;15.25;6.00;;;7.00;99.90;;;;;;5014578;28;20087;-78
2022/04/27 06:17:08;;;;;;;12.23;5.32;;;7.10;99.90;;;;;;5014636;28;20077;-78
2022/04/27 06:19:33;;;;;;;9.73;5.47;;;7.20;99.90;;;;;;5014107;28;20042;-78
2022/04/27 06:21:59;;;;;;;7.65;5.22;;;7.30;99.90;;;;;;5014853;28;20040;-79
2022/04/27 06:24:26;;;;;;;10.68;5.28;;;7.40;99.90;;;;;;4998276;28;20492;-77
2022/04/27 06:26:53;;;;;;;9.68;5.18;;;7.50;99.90;;;;;;5014386;28;20493;-78
2022/04/27 06:29:19;;;;;;;10.32;5.30;;;7.60;99.90;;;;;;5014189;28;20123;-79
2022/04/27 06:31:45;;;;;;;9.15;5.03;;;7.70;99.90;;;;;;5014396;28;20069;-77
2022/04/27 06:34:12;;;;;;;11.30;4.78;;;7.90;99.90;;;;;;5032163;28;20048;-77
2022/04/27 06:36:38;;;;;;;8.88;4.78;;;8.00;99.90;;;;;;5014266;28;20087;-77
2022/04/27 06:39:07;;;;;;;8.15;4.95;;;8.10;99.90;;;;;;5014424;28;20059;-77
2022/04/27 06:41:32;;;;;;;7.45;4.22;;;8.20;99.90;;;;;;5013791;28;20576;-78
2022/04/27 06:43:58;;;;;;;9.95;4.90;;;8.30;99.90;;;;;;4997718;28;20084;-78
2022/04/27 06:46:24;;;;;;;11.05;5.75;;;8.40;99.90;;;;;;5014117;28;20042;-78
2022/04/27 06:48:49;;;;;;;10.85;4.53;;;8.50;99.90;;;;;;5013975;28;20049;-77
2022/04/27 06:51:17;;;;;;;11.30;4.88;;;8.70;99.90;;;;;;5013848;28;20125;-77
2022/04/27 06:53:44;;;;;;;9.65;4.93;;;8.70;99.90;;;;;;5014068;28;20053;-77
2022/04/27 06:56:09;;;;;;;10.90;4.50;;;8.80;99.90;;;;;;5014104;28;20492;-78
2022/04/27 06:58:35;;;;;;;6.13;3.97;;;8.80;99.90;;;;;;5013959;28;20038;-78
2022/04/27 07:01:03;;;;;;;49.97;33.00;;;8.90;99.90;;;;;;5013571;28;20167;-77
2022/04/27 07:03:31;;;;;;;9.70;5.97;;;9.00;99.90;;;;;;5031553;28;20041;-78
2022/04/27 07:05:57;;;;;;;5.75;3.75;;;9.10;99.90;;;;;;5013740;28;20056;-77
2022/04/27 07:08:23;;;;;;;7.18;3.65;;;9.20;99.90;;;;;;5013713;28;20049;-78
2022/04/27 07:10:49;;;;;;;7.18;3.75;;;9.40;99.90;;;;;;4997068;28;20045;-78
2022/04/27 07:13:14;;;;;;;7.97;3.67;;;9.60;99.90;;;;;;5013646;28;20052;-77
2022/04/27 07:15:40;;;;;;;4.47;2.90;;;9.70;99.90;;;;;;5013455;28;20428;-77
2022/04/27 07:18:06;;;;;;;6.40;2.90;;;9.80;99.90;;;;;;4997207;28;20113;-77
2022/04/27 07:20:32;;;;;;;6.57;2.30;;;10.00;99.90;;;;;;5013180;28;20131;-77
2022/04/27 07:22:57;;;;;;;5.30;2.50;;;10.10;99.90;;;;;;5013325;28;20380;-77
2022/04/27 07:25:23;;;;;;;5.57;2.55;;;10.10;99.90;;;;;;5013509;28;20191;-78
2022/04/27 07:27:49;;;;;;;3.85;1.98;;;10.20;99.90;;;;;;5013213;28;20076;-78
2022/04/27 07:30:15;;;;;;;4.18;1.88;;;10.30;99.90;;;;;;5013100;28;20049;-78
2022/04/27 07:32:41;;;;;;;4.72;2.17;;;10.50;99.90;;;;;;5013588;28;20077;-78
2022/04/27 07:35:07;;;;;;;4.28;2.20;;;10.60;99.90;;;;;;5013296;28;20037;-77
2022/04/27 07:37:37;;;;;;;6.07;1.88;;;10.60;99.90;;;;;;5013278;28;20053;-78
2022/04/27 07:40:04;;;;;;;3.38;1.48;;;10.70;99.90;;;;;;5012347;28;20049;-77
2022/04/27 07:42:29;;;;;;;3.70;2.47;;;10.80;99.90;;;;;;5013271;28;20053;-79
2022/04/27 07:44:55;;;;;;;1.65;1.55;;;10.80;99.90;;;;;;4996883;28;20049;-77
2022/04/27 07:47:20;;;;;;;2.28;1.73;;;10.90;99.90;;;;;;5013121;28;20056;-78
2022/04/27 07:49:47;;;;;;;6.63;2.08;;;10.90;99.90;;;;;;5012641;28;20073;-78
2022/04/27 07:52:13;;;;;;;6.35;2.50;;;11.00;99.90;;;;;;5012926;28;20052;-78
2022/04/27 07:54:41;;;;;;;5.53;1.90;;;11.00;99.90;;;;;;5013397;28;20041;-78
2022/04/27 07:57:07;;;;;;;2.35;1.40;;;11.00;99.90;;;;;;5013110;28;20041;-78
2022/04/27 07:59:32;;;;;;;2.75;1.95;;;11.00;99.90;;;;;;4996404;28;20060;-77
2022/04/27 08:01:58;;;;;;;5.65;2.67;;;11.00;99.90;;;;;;4997074;28;20045;-77
2022/04/27 08:04:23;;;;;;;4.13;1.63;;;11.00;99.90;;;;;;4996886;28;20053;-77
2022/04/27 08:06:50;;;;;;;3.95;1.65;;;11.10;99.90;;;;;;4996553;28;20037;-77
2022/04/27 08:09:16;;;;;;;4.40;1.20;;;11.00;99.90;;;;;;5010049;28;20410;-78
2022/04/27 08:11:42;;;;;;;4.65;1.50;;;11.10;99.90;;;;;;5004417;28;20128;-78
2022/04/27 08:14:08;;;;;;;3.08;1.23;;;11.10;99.90;;;;;;5012386;28;20045;-77
2022/04/27 08:16:34;;;;;;;3.65;1.27;;;11.20;99.90;;;;;;5004088;28;20116;-78
2022/04/27 08:18:59;;;;;;;3.05;1.17;;;11.30;99.90;;;;;;5011639;28;20480;-78
2022/04/27 08:21:27;;;;;;;2.90;1.33;;;11.40;99.90;;;;;;4995195;28;20036;-78
2022/04/27 08:23:53;;;;;;;3.47;1.35;;;11.50;99.90;;;;;;5012524;28;20053;-79
2022/04/27 08:26:19;;;;;;;3.08;1.67;;;11.70;99.90;;;;;;4999091;28;20053;-78
2022/04/27 08:28:48;;;;;;;5.20;1.52;;;11.80;99.90;;;;;;5016660;28;20045;-77
2022/04/27 08:31:16;;;;;;;4.40;1.45;;;12.00;99.90;;;;;;4998898;28;20091;-77
2022/04/27 08:33:42;;;;;;;3.70;1.30;;;12.10;99.90;;;;;;5036379;28;20033;-77
2022/04/27 08:36:08;;;;;;;4.93;1.10;;;12.30;99.90;;;;;;5016160;28;20063;-77
2022/04/27 08:38:34;;;;;;;1.92;0.95;;;12.40;99.90;;;;;;5041984;28;20045;-78
2022/04/27 08:41:00;;;;;;;6.10;1.35;;;12.50;99.90;;;;;;5000195;28;20045;-77
2022/04/27 08:43:26;;;;;;;4.57;1.60;;;12.40;99.90;;;;;;5014311;28;20037;-78
2022/04/27 08:45:53;;;;;;;7.50;1.60;;;12.50;99.90;;;;;;5035366;28;20061;-78
2022/04/27 08:48:21;;;;;;;5.20;1.50;;;12.50;99.90;;;;;;5052436;28;20064;-77
2022/04/27 08:50:47;;;;;;;1.63;1.10;;;12.50;99.90;;;;;;5035631;28;20095;-77
2022/04/27 08:53:13;;;;;;;3.70;1.23;;;12.50;99.90;;;;;;5054150;28;20522;-77
2022/04/27 08:55:40;;;;;;;4.55;1.50;;;12.50;99.90;;;;;;5012347;28;20044;-77
2022/04/27 08:58:11;;;;;;;4.95;1.55;;;12.60;99.90;;;;;;5035617;28;20034;-78
2022/04/27 09:00:37;;;;;;;3.92;1.20;;;12.60;99.90;;;;;;5041745;28;20037;-77
2022/04/27 09:03:22;;;;;;;4.47;1.20;;;12.80;99.90;;;;;;5016274;28;20046;-77
2022/04/27 09:05:53;;;;;;;3.70;1.27;;;12.80;95.30;;;;;;5015311;28;20080;-78
2022/04/27 09:08:19;;;;;;;2.78;1.20;;;12.80;99.90;;;;;;4999498;28;20060;-78
2022/04/27 09:10:44;;;;;;;5.97;1.75;;;12.80;99.90;;;;;;4999199;28;20045;-77
2022/04/27 09:13:10;;;;;;;7.53;1.75;;;12.80;99.90;;;;;;5007001;28;20061;-77
2022/04/27 09:15:35;;;;;;;6.25;1.23;;;12.80;99.60;;;;;;5031980;28;20063;-82
2022/04/27 09:20:54;;;;;;;3.47;1.13;;;12.90;98.30;;;;;;5014428;28;20104;-78
2022/04/27 09:23:29;;;;;;;2.78;1.23;;;12.80;98.60;;;;;;5024178;28;20044;-78
2022/04/27 09:26:00;;;;;;;6.45;1.85;;;12.80;98.20;;;;;;5020679;28;20045;-78
2022/04/27 09:28:31;;;;;;;2.63;1.35;;;12.80;97.50;;;;;;5015651;28;20107;-78
2022/04/27 09:30:58;;;;;;;6.50;1.42;;;12.80;97.10;;;;;;5011968;28;20040;-78
2022/04/27 09:33:37;;;;;;;3.63;1.35;;;12.80;97.90;;;;;;5015353;28;20497;-77
2022/04/27 09:36:23;;;;;;;5.03;1.33;;;12.70;94.80;;;;;;5015434;28;20396;-78
2022/04/27 09:38:49;;;;;;;6.35;1.40;;;12.70;96.20;;;;;;5014832;28;20333;-78
2022/04/27 09:41:15;;;;;;;1.73;1.42;;;12.70;97.40;;;;;;5015033;28;20087;-78
2022/04/27 09:43:47;;;;;;;5.75;1.50;;;12.60;96.80;;;;;;5033315;28;20037;-77
2022/04/27 09:46:25;;;;;;;3.97;1.58;;;12.60;94.90;;;;;;5015209;28;20092;-78
2022/04/27 09:49:07;;;;;;;1.75;1.33;;;12.50;93.80;;;;;;5015200;28;20523;-77
2022/04/27 09:51:34;;;;;;;;;;;12.50;93.00;;;;;;4999204;28;20069;-77
2022/04/27 09:54:00;;;;;;;4.18;1.42;;;12.60;91.90;;;;;;5031930;28;19993;-78
2022/04/27 09:56:31;;;;;;;4.38;1.48;;;12.60;97.20;;;;;;5031427;28;20132;-77
2022/04/27 09:59:00;;;;;;;9.23;1.50;;;12.50;96.40;;;;;;5014960;28;20033;-78
2022/04/27 10:01:26;;;;;;;3.10;1.45;;;12.50;95.40;;;;;;5014531;28;20107;-78
2022/04/27 10:03:57;;;;;;;8.25;1.67;;;12.50;95.80;;;;;;5015172;28;20049;-78
2022/04/27 10:06:23;;;;;;;4.88;2.08;;;12.50;95.50;;;;;;4999198;28;20099;-77
2022/04/27 10:08:51;;;;;;;2.08;1.27;;;12.50;96.00;;;;;;4998490;28;20038;-77
2022/04/27 10:11:19;;;;;;;3.03;1.38;;;12.50;95.70;;;;;;5014504;28;20037;-77
2022/04/27 10:13:45;;;;;;;4.00;1.50;;;12.60;95.50;;;;;;5032523;28;20527;-77
2022/04/27 10:16:11;;;;;;;9.93;1.70;;;12.60;95.20;;;;;;5015055;28;20132;-77
2022/04/27 10:18:37;;;;;;;5.45;1.50;;;12.70;95.50;;;;;;4996968;28;20489;-77
2022/04/27 10:21:04;;;;;;;2.40;1.40;;;12.70;95.90;;;;;;5013765;28;20067;-78
2022/04/27 10:23:33;;;;;;;4.82;1.30;;;12.80;95.70;;;;;;5030931;28;20114;-78
2022/04/27 10:26:28;;;;;;;4.47;1.60;;;12.80;95.20;;;;;;5014286;28;20084;-77
2022/04/27 10:29:05;;;;;;;4.15;1.58;;;12.80;91.50;;;;;;5009991;28;20645;-77
2022/04/27 10:31:43;;;;;;;4.30;1.50;;;12.80;95.20;;;;;;5002134;28;20549;-77
2022/04/27 10:34:17;;;;;;;6.80;1.50;;;12.80;94.40;;;;;;5010561;28;20085;-77
2022/04/27 10:36:44;;;;;;;5.45;1.52;;;12.90;94.10;;;;;;5017471;28;20033;-77
2022/04/27 10:39:13;;;;;;;5.72;1.85;;;13.00;95.30;;;;;;5017007;28;20039;-79
2022/04/27 10:42:03;;;;;;;9.38;1.60;;;13.20;94.20;;;;;;5017237;28;20068;-78
2022/04/27 10:44:47;;;;;;;4.28;1.55;;;13.30;92.70;;;;;;5000554;28;20053;-78
2022/04/27 10:47:14;;;;;;;4.32;1.65;;;13.40;91.00;;;;;;5033806;28;20408;-78
2022/04/27 10:49:40;;;;;;;3.78;1.60;;;13.40;93.10;;;;;;5015862;28;20052;-78
2022/04/27 10:52:07;;;;;;;2.10;1.35;;;13.50;93.00;;;;;;5051719;28;20124;-77
2022/04/27 10:54:37;;;;;;;3.88;1.38;;;13.60;92.80;;;;;;5033845;28;20127;-79
2022/04/27 10:57:14;;;;;;;6.57;1.63;;;13.50;89.70;;;;;;5017638;28;20095;-78
2022/04/27 11:00:05;;;;;;;6.57;1.35;;;13.70;88.70;;;;;;5033511;28;20492;-78
2022/04/27 11:02:38;;;;;;;5.50;1.90;;;13.70;91.30;;;;;;5034809;28;20503;-76
2022/04/27 11:05:12;;;;;;;4.63;1.33;;;13.70;91.50;;;;;;5051552;28;20041;-76
2022/04/27 11:08:22;;;;;;;4.63;1.45;;;13.70;85.40;;;;;;5033764;28;20055;-76
2022/04/27 11:10:54;;;;;;;3.95;1.70;;;13.70;80.60;;;;;;5016875;28;20045;-77
2022/04/27 11:13:25;;;;;;;5.10;1.55;;;13.60;91.80;;;;;;5017413;28;20040;-76
2022/04/27 11:15:51;;;;;;;6.70;1.83;;;13.70;92.10;;;;;;5017698;28;20505;-76
2022/04/27 11:18:16;;;;;;;2.45;1.38;;;13.60;91.20;;;;;;5033570;28;20120;-76
2022/04/27 11:20:43;;;;;;;2.97;1.58;;;13.50;91.20;;;;;;5051167;28;20488;-76
2022/04/27 11:23:20;;;;;;;5.43;1.85;;;13.40;90.70;;;;;;5033444;28;20060;-76
2022/04/27 11:25:50;;;;;;;5.80;1.42;;;13.40;90.60;;;;;;5033287;28;20049;-75
2022/04/27 11:28:17;;;;;;;9.18;1.90;;;13.40;91.40;;;;;;5033110;28;20403;-75
2022/04/27 11:30:44;;;;;;;6.05;1.83;;;13.60;91.60;;;;;;5032957;28;20053;-76
2022/04/27 11:33:10;;;;;;;6.18;2.25;;;13.80;90.60;;;;;;5032840;28;20037;-75
2022/04/27 11:35:38;;;;;;;6.55;1.60;;;14.00;91.30;;;;;;5033188;28;20041;-76
2022/04/27 11:38:05;;;;;;;6.50;1.80;;;14.10;89.70;;;;;;5033209;28;20052;-76
2022/04/27 11:40:36;;;;;;;5.57;1.65;;;14.10;89.50;;;;;;5032630;28;20132;-76
2022/04/27 11:43:04;;;;;;;3.83;1.75;;;14.10;84.70;;;;;;5033372;28;20411;-77
2022/04/27 11:45:30;;;;;;;3.78;1.85;;;13.90;89.50;;;;;;5016462;28;20040;-77
2022/04/27 11:47:57;;;;;;;3.30;1.42;;;13.70;90.60;;;;;;5017749;28;20046;-76
2022/04/27 11:50:23;;;;;;;7.78;1.90;;;13.70;89.50;;;;;;4996355;28;20060;-76
2022/04/27 11:53:16;;;;;;;4.75;1.63;;;13.60;87.70;;;;;;5013318;28;20120;-76
2022/04/27 11:55:43;;;;;;;3.92;1.70;;;13.60;85.00;;;;;;4996282;28;20088;-76
2022/04/27 11:58:09;;;;;;;9.45;1.80;;;13.60;90.30;;;;;;5029654;28;20069;-76
2022/04/27 12:00:35;;;;;;;5.22;1.90;;;13.60;90.40;;;;;;5009964;28;20412;-76
2022/04/27 12:03:06;;;;;;;8.20;2.40;;;13.70;90.00;;;;;;5012005;28;20083;-76
2022/04/27 12:05:34;;;;;;;7.93;1.90;;;13.80;87.40;;;;;;5007680;28;20033;-76
2022/04/27 12:08:02;;;;;;;8.77;1.80;;;13.80;88.50;;;;;;5009845;28;20045;-76
2022/04/27 12:10:29;;;;;;;5.78;1.83;;;13.80;88.40;;;;;;5022623;28;20121;-76
2022/04/27 12:12:58;;;;;;;4.95;1.95;;;13.80;89.50;;;;;;5013450;28;20049;-76
2022/04/27 12:15:27;;;;;;;7.05;2.00;;;13.80;88.90;;;;;;5031072;28;20045;-76
2022/04/27 12:18:01;;;;;;;6.22;2.50;;;13.80;89.30;;;;;;5013191;28;20543;-76
2022/04/27 12:20:41;;;;;;;5.65;2.00;;;13.90;88.00;;;;;;5012237;28;20051;-76
2022/04/27 12:23:08;;;;;;;4.88;1.95;;;13.90;86.30;;;;;;5007888;28;20447;-76
2022/04/27 12:25:38;;;;;;;3.35;1.60;;;13.90;89.20;;;;;;5024830;28;20041;-76
2022/04/27 12:28:05;;;;;;;4.45;2.03;;;13.90;87.80;;;;;;5013732;28;20041;-76
2022/04/27 12:30:31;;;;;;;6.60;2.00;;;13.90;90.00;;;;;;4993239;28;20050;-76
2022/04/27 12:32:58;;;;;;;5.05;1.90;;;13.90;90.70;;;;;;5002970;28;20045;-76
2022/04/27 12:38:17;;;;;;;3.20;2.08;;;13.90;90.50;;;;;;5011715;28;20049;-75
2022/04/27 12:40:42;;;;;;;6.18;2.92;;;13.80;90.70;;;;;;5010373;28;20048;-76
2022/04/27 12:43:10;;;;;;;5.00;2.13;;;13.80;91.20;;;;;;5003006;28;20430;-76
2022/04/27 12:45:36;;;;;;;9.43;2.50;;;13.70;91.40;;;;;;5016622;28;20037;-76
2022/04/27 12:48:04;;;;;;;15.20;3.38;;;13.70;91.70;;;;;;5032419;28;20108;-76
2022/04/27 12:50:31;;;;;;;5.45;2.35;;;13.60;91.40;;;;;;5032161;28;20492;-76
2022/04/27 12:53:07;;;;;;;8.57;2.67;;;13.60;92.10;;;;;;5032155;28;20032;-76
2022/04/27 12:55:32;;;;;;;4.00;2.28;;;13.50;92.00;;;;;;5050273;28;20508;-76
2022/04/27 12:58:01;;;;;;;5.35;2.30;;;13.50;92.10;;;;;;5016303;28;20041;-76
2022/04/27 13:00:44;;;;;;;6.47;2.63;;;13.40;92.10;;;;;;5032422;28;20369;-76
2022/04/27 13:03:10;;;;;;;6.68;2.47;;;13.50;92.60;;;;;;5032490;28;20068;-76
2022/04/27 13:05:40;;;;;;;6.28;2.28;;;13.40;92.90;;;;;;5042476;28;20052;-75